St Helier, United Kingdom
Current Conditions -  °F | °C
As of 11:20 PM on Sunday 23 Nov 2014 (Local Time) from EGJJ Reporting Station
Few Clouds Few Clouds  
Wind Chill: 45°   Ceiling: Unl
Heat Index: 48°   Visibility: 6mi
Dew Point: 45°   Wind: 7mph
Humidity: 87%   Direction: 40°NE
Pressure: 30.15"   Gusts: NA
Location:  49.18°N, 2.1°W
Report Text: EGJJ 232220Z 04006KT 9999 FEW018 09/07 Q1021 NOSIG
Loading
Personal Weather Stations






























Interactive Weather Map New forecast layout! Learn more

10-Day Weather Forecast

Advertisements
Track Severe Weather on mobile